Plainview, Texas
Current Conditions -  °F | °C
As of 11:15 AM on Thursday 18 Dec 2014 (Local Time) from KPVW Reporting Station
Broken Clouds Broken Clouds  
Wind Chill: 34°   Ceiling: 800
Heat Index: 40°   Visibility: 10mi
Dew Point: 35°   Wind: 9mph
Humidity: 82%   Direction: 350°N
Pressure: 30.12"   Gusts: NA
Location:  34.2°N, 101.69°W
Report Text: KPVW 181715Z AUTO 35008KT 10SM BKN008 05/02 A3012 RMK AO2 T00450017
Loading
Personal Weather Stations






























Interactive Weather Map New forecast layout! Learn more

10-Day Weather Forecast

Advertisements
Track Severe Weather on mobile